Time;durP1;ratioP1;P1;durP2;ratioP2;P2;SDS_P1;SDS_P2;PMS_P1;PMS_P2;Temp;Humidity;BMP_temperature;BMP_pressure;BME280_temperature;BME280_humidity;BME280_pressure;Samples;Min_cycle;Max_cycle;Signal;HPM_P1;HPM_P2
2022/01/27 00:05:55;;;;;;;32.58;16.67;;;;;;;1.97;85.69;101802.63;5021046;28;20043;-23
2022/01/27 00:08:36;;;;;;;31.33;17.55;;;;;;;1.98;85.56;101799.19;5022993;28;20033;-23
2022/01/27 00:11:08;;;;;;;28.88;15.13;;;;;;;1.97;85.64;101793.09;5024727;28;20482;-23
2022/01/27 00:13:43;;;;;;;36.60;16.17;;;;;;;1.98;85.48;101799.19;5025859;28;20486;-23
2022/01/27 00:16:15;;;;;;;36.22;18.02;;;;;;;1.97;85.75;101792.22;5024372;28;20040;-23
2022/01/27 00:18:42;;;;;;;36.20;16.63;;;;;;;1.96;85.76;101799.13;5022883;28;20025;-23
2022/01/27 00:21:08;;;;;;;36.80;18.10;;;;;;;1.96;85.52;101798.25;5023152;28;20030;-23
2022/01/27 00:23:34;;;;;;;37.20;17.30;;;;;;;1.97;85.80;101792.22;5024518;28;20096;-23
2022/01/27 00:26:00;;;;;;;38.10;17.13;;;;;;;1.97;85.36;101797.41;5024856;28;20120;-23
2022/01/27 00:28:27;;;;;;;36.90;17.27;;;;;;;1.96;85.67;101782.63;5020884;28;20171;-23
2022/01/27 00:30:53;;;;;;;44.30;18.98;;;;;;;1.96;85.69;101780.91;5024750;28;20090;-23
2022/01/27 00:33:18;;;;;;;41.67;19.98;;;;;;;1.98;85.86;101778.38;5022251;28;20485;-23
2022/01/27 00:35:44;;;;;;;35.45;17.77;;;;;;;1.96;85.98;101774.84;5024315;28;20033;-23
2022/01/27 00:38:09;;;;;;;39.45;18.80;;;;;;;1.96;85.83;101767.03;5024131;28;20521;-23
2022/01/27 00:40:35;;;;;;;35.03;18.48;;;;;;;1.96;85.84;101774.84;5023803;28;20063;-23
2022/01/27 00:43:00;;;;;;;38.85;20.50;;;;;;;1.96;85.55;101764.44;5023340;28;20108;-23
2022/01/27 00:45:29;;;;;;;44.45;21.35;;;;;;;1.95;85.66;101773.94;5024335;28;20391;-23
2022/01/27 00:47:54;;;;;;;44.65;20.15;;;;;;;1.96;85.83;101756.63;5022513;28;20286;-23
2022/01/27 00:50:20;;;;;;;42.80;21.90;;;;;;;1.94;85.60;101748.75;5025246;28;20033;-23
2022/01/27 00:52:50;;;;;;;40.08;20.83;;;;;;;1.96;85.81;101751.41;5023039;28;20025;-23
2022/01/27 00:55:17;;;;;;;43.67;19.10;;;;;;;1.96;85.74;101757.50;5019115;28;20030;-23
2022/01/27 00:58:13;;;;;;;40.08;19.85;;;;;;;1.97;85.63;101755.78;5023617;28;20037;-23
2022/01/27 01:00:48;;;;;;;42.15;19.50;;;;;;;1.96;85.64;101759.22;5024784;28;20372;-23
2022/01/27 01:03:25;;;;;;;43.10;19.85;;;;;;;1.96;85.93;101764.44;5022359;28;20033;-23
2022/01/27 01:19:02;;;;;;;39.17;20.02;;;;;;;1.96;85.80;101748.81;5020296;28;20038;-23
2022/01/27 01:34:29;;;;;;;35.88;19.67;;;;;;;1.96;85.62;101731.47;5022819;28;20057;-23
2022/01/27 01:37:00;;;;;;;37.38;16.48;;;;;;;1.97;85.84;101724.56;5020892;28;20109;-23
2022/01/27 01:39:28;;;;;;;32.75;16.33;;;;;;;1.97;85.64;101703.75;5022506;28;20236;-23
2022/01/27 01:41:54;;;;;;;26.63;15.50;;;;;;;1.97;85.49;101698.53;5020877;28;20034;-23
2022/01/27 01:44:20;;;;;;;29.00;15.10;;;;;;;1.98;86.00;101696.00;5025113;28;20038;-23
2022/01/27 01:46:46;;;;;;;30.65;15.05;;;;;;;1.98;85.48;101690.81;5023655;28;20057;-23
2022/01/27 01:49:12;;;;;;;27.08;14.57;;;;;;;1.98;85.57;101684.69;5022250;28;20524;-23
2022/01/27 01:51:39;;;;;;;24.02;14.95;;;;;;;1.99;85.70;101687.38;5023836;28;20417;-23
2022/01/27 01:54:05;;;;;;;22.52;12.27;;;;;;;1.99;85.60;101678.66;5023855;28;20037;-23
2022/01/27 01:56:31;;;;;;;24.08;13.43;;;;;;;1.99;85.66;101671.75;5021027;28;20017;-23
2022/01/27 01:58:58;;;;;;;23.52;12.85;;;;;;;1.99;85.52;101669.16;5024124;28;20104;-23
2022/01/27 02:01:24;;;;;;;26.83;13.73;;;;;;;2.01;85.68;101684.84;5021038;28;20095;-23
2022/01/27 02:03:50;;;;;;;25.45;13.38;;;;;;;2.01;85.68;101674.41;5023967;28;20496;-23
2022/01/27 02:06:31;;;;;;;21.85;12.75;;;;;;;2.02;85.70;101665.78;5023379;28;20041;-23
2022/01/27 02:19:43;;;;;;;27.83;14.32;;;;;;;2.04;85.53;101648.53;5019349;28;20032;-23
2022/01/27 02:22:08;;;;;;;24.45;14.50;;;;;;;2.05;85.64;101645.09;5019914;28;20041;-23
2022/01/27 02:24:36;;;;;;;25.48;13.30;;;;;;;2.05;85.59;101634.69;5020874;28;20037;-23
2022/01/27 02:27:03;;;;;;;20.75;12.90;;;;;;;2.05;85.69;101635.59;5019902;28;20067;-23
2022/01/27 02:29:29;;;;;;;25.23;14.52;;;;;;;2.05;85.69;101632.97;5018125;28;20030;-23
2022/01/27 02:31:59;;;;;;;26.73;13.50;;;;;;;2.06;85.40;101618.25;5019372;28;20250;-23
2022/01/27 02:34:25;;;;;;;25.23;14.55;;;;;;;2.08;85.66;101620.91;5017153;28;20092;-23
2022/01/27 02:36:51;;;;;;;21.25;14.13;;;;;;;2.07;85.48;101613.94;5007075;28;20266;-23
2022/01/27 02:39:18;;;;;;;23.05;12.48;;;;;;;2.06;85.47;101615.63;5019878;28;20033;-23
2022/01/27 02:41:50;;;;;;;23.15;12.98;;;;;;;2.07;85.58;101604.44;5019736;28;20428;-23
2022/01/27 02:44:25;;;;;;;23.35;14.02;;;;;;;2.07;85.46;101607.03;5013762;28;20075;-23
2022/01/27 02:46:51;;;;;;;24.02;13.88;;;;;;;2.08;85.62;101619.22;5019849;28;20040;-23
2022/01/27 02:49:18;;;;;;;27.98;15.20;;;;;;;2.07;85.42;101622.66;5020661;28;20108;-23
2022/01/27 02:51:43;;;;;;;25.20;14.30;;;;;;;2.09;85.29;101620.06;5024721;28;20477;-23
2022/01/27 02:54:09;;;;;;;24.63;13.98;;;;;;;2.09;85.50;101605.34;5022330;28;20044;-23
2022/01/27 02:56:43;;;;;;;21.38;14.73;;;;;;;2.08;85.54;101602.69;5021049;28;20022;-23
2022/01/27 02:59:08;;;;;;;24.42;14.65;;;;;;;2.09;85.43;101597.56;5019313;28;20033;-23
2022/01/27 03:01:34;;;;;;;23.80;15.10;;;;;;;2.09;85.81;101594.06;5019614;28;20037;-23
2022/01/27 03:03:59;;;;;;;22.35;14.65;;;;;;;2.08;85.46;101593.19;5025770;28;20030;-23
2022/01/27 03:06:25;;;;;;;23.00;14.10;;;;;;;2.09;85.50;101586.25;5022178;28;20021;-23
2022/01/27 03:08:50;;;;;;;23.90;15.15;;;;;;;2.08;85.25;101580.16;5023895;28;20535;-23
2022/01/27 03:11:18;;;;;;;25.27;15.27;;;;;;;2.08;85.30;101574.06;5022793;28;20040;-23
2022/01/27 03:13:43;;;;;;;22.63;14.00;;;;;;;2.08;85.38;101574.06;5021504;28;20025;-23
2022/01/27 03:16:10;;;;;;;26.40;13.82;;;;;;;2.08;85.28;101567.16;5023763;28;20036;-23
2022/01/27 03:18:35;;;;;;;24.10;15.65;;;;;;;2.08;85.35;101572.34;5022586;28;20112;-23
2022/01/27 03:21:03;;;;;;;26.23;16.27;;;;;;;2.08;85.32;101561.06;5021442;28;20145;-23
2022/01/27 03:23:28;;;;;;;23.70;13.25;;;;;;;2.07;85.47;101574.91;5020507;28;20038;-23
2022/01/27 03:25:54;;;;;;;22.30;13.93;;;;;;;2.09;85.12;101573.22;5008683;28;20037;-23
2022/01/27 03:28:24;;;;;;;24.48;15.23;;;;;;;2.08;85.14;101561.94;5022067;28;20037;-23
2022/01/27 03:30:49;;;;;;;21.95;13.80;;;;;;;2.06;85.25;101558.38;5021492;28;20037;-23
2022/01/27 03:33:15;;;;;;;23.13;14.23;;;;;;;2.08;85.22;101561.94;5022493;28;20025;-23
2022/01/27 03:35:40;;;;;;;23.25;13.90;;;;;;;2.07;85.47;101549.78;5020090;28;20053;-23
2022/01/27 03:38:06;;;;;;;22.50;14.57;;;;;;;2.08;85.29;101540.22;5022192;28;20052;-23
2022/01/27 03:40:31;;;;;;;26.40;15.85;;;;;;;2.08;85.46;101535.91;5017427;28;20508;-23
2022/01/27 03:43:05;;;;;;;24.33;15.57;;;;;;;2.07;85.40;101528.94;5026299;28;20100;-23
2022/01/27 03:45:31;;;;;;;24.88;14.55;;;;;;;2.07;85.23;101520.25;5020306;28;20029;-23
2022/01/27 03:47:56;;;;;;;23.40;14.85;;;;;;;2.07;85.29;101507.22;5025497;28;20022;-23
2022/01/27 03:50:22;;;;;;;24.42;15.50;;;;;;;2.05;85.31;101505.47;5025650;28;20026;-23
2022/01/27 03:52:47;;;;;;;30.20;16.02;;;;;;;2.07;85.41;101507.22;5026002;28;20420;-23
2022/01/27 03:55:13;;;;;;;23.55;14.82;;;;;;;2.06;84.94;101501.13;5025494;28;20029;-23
2022/01/27 03:57:39;;;;;;;27.10;15.70;;;;;;;2.06;85.31;101488.13;5022768;28;20533;-23
2022/01/27 04:00:06;;;;;;;24.40;14.65;;;;;;;2.06;84.83;101480.31;5018507;28;20034;-23
2022/01/27 04:02:34;;;;;;;23.70;14.88;;;;;;;2.05;85.02;101491.56;5022334;28;20052;-23
2022/01/27 04:04:59;;;;;;;23.08;15.02;;;;;;;2.05;85.05;101500.25;5024118;28;20037;-23
2022/01/27 04:07:25;;;;;;;26.92;16.42;;;;;;;2.05;85.14;101499.38;5025088;28;20070;-23
2022/01/27 04:09:50;;;;;;;26.27;14.82;;;;;;;2.04;85.08;101498.47;5026354;28;20056;-23
2022/01/27 04:12:16;;;;;;;23.50;15.73;;;;;;;2.04;85.11;101488.06;5022716;28;20113;-23
2022/01/27 04:14:43;;;;;;;25.70;16.30;;;;;;;2.04;85.22;101488.06;5025479;28;20081;-23
2022/01/27 04:17:08;;;;;;;25.40;15.73;;;;;;;2.05;85.09;101475.94;5024271;28;20327;-23
2022/01/27 04:19:34;;;;;;;27.02;15.35;;;;;;;2.03;85.23;101481.09;5024247;28;20030;-23
2022/01/27 04:22:00;;;;;;;24.20;15.13;;;;;;;2.03;85.12;101481.09;5022478;28;20030;-23
2022/01/27 04:24:25;;;;;;;25.60;14.48;;;;;;;2.03;85.17;101483.69;5026549;28;20541;-23
2022/01/27 04:26:59;;;;;;;27.02;14.50;;;;;;;2.02;85.11;101484.53;5023713;28;20080;-23
2022/01/27 04:29:25;;;;;;;23.77;14.05;;;;;;;2.02;85.00;101484.53;5026546;28;20033;-23
2022/01/27 04:31:51;;;;;;;22.25;13.50;;;;;;;2.01;84.99;101476.66;5021332;28;20081;-23
2022/01/27 04:34:17;;;;;;;22.92;14.27;;;;;;;2.02;85.06;101479.31;5024917;28;20477;-23
2022/01/27 04:36:44;;;;;;;26.95;16.05;;;;;;;2.02;84.86;101481.03;5024077;28;20038;-23
2022/01/27 04:39:27;;;;;;;23.33;14.10;;;;;;;2.01;84.94;101471.44;5023425;28;20038;-23
2022/01/27 04:41:59;;;;;;;21.83;12.80;;;;;;;2.02;84.97;101468.00;5024862;28;20022;-23
2022/01/27 04:44:33;;;;;;;21.08;12.68;;;;;;;2.02;84.89;101475.81;5023952;28;21525;-23
2022/01/27 04:47:05;;;;;;;22.40;12.57;;;;;;;2.02;84.81;101475.81;5021754;28;20032;-23
2022/01/27 04:49:31;;;;;;;19.95;13.50;;;;;;;2.01;84.73;101481.84;5023289;28;20124;-23
2022/01/27 04:51:57;;;;;;;20.20;13.02;;;;;;;2.01;84.41;101474.06;5022315;28;20117;-23
2022/01/27 04:54:29;;;;;;;23.02;13.27;;;;;;;2.01;84.69;101466.25;5022002;28;20025;-23
2022/01/27 04:56:59;;;;;;;20.25;12.15;;;;;;;2.01;84.65;101463.63;5024136;28;20037;-23
2022/01/27 04:59:28;;;;;;;21.63;13.82;;;;;;;2.01;84.66;101466.25;5022963;28;20022;-23
2022/01/27 05:02:00;;;;;;;23.48;13.98;;;;;;;2.01;84.45;101450.63;5025541;28;20039;-23
2022/01/27 05:04:30;;;;;;;22.75;13.20;;;;;;;1.99;84.68;101453.16;5026074;28;20496;-23
2022/01/27 05:06:56;;;;;;;23.65;13.45;;;;;;;2.01;84.37;101456.72;5023060;28;20040;-23
2022/01/27 05:09:23;;;;;;;23.90;13.85;;;;;;;2.01;84.59;101445.44;5023136;28;20025;-23
2022/01/27 05:12:13;;;;;;;22.33;12.85;;;;;;;2.00;84.32;101441.06;5022849;28;20064;-23
2022/01/27 05:14:34;;;;;;;20.20;12.93;;;;;;;1.99;84.34;101432.34;5023935;28;20049;-23
2022/01/27 05:17:00;;;;;;;23.75;13.82;;;;;;;2.00;84.19;101438.47;5023228;28;20029;-23
2022/01/27 05:19:25;;;;;;;19.58;12.45;;;;;;;1.99;84.48;101411.53;5024763;28;20100;-23
2022/01/27 05:21:51;;;;;;;18.73;12.52;;;;;;;1.98;84.66;101398.47;5024755;28;20359;-23
2022/01/27 05:24:18;;;;;;;22.25;13.35;;;;;;;1.99;84.08;101410.63;5020914;28;20063;-23
2022/01/27 05:26:43;;;;;;;23.52;12.43;;;;;;;1.99;84.17;101431.44;5018597;28;20282;-23
2022/01/27 05:29:09;;;;;;;20.70;13.05;;;;;;;1.98;84.37;101407.16;5023028;28;20116;-23
2022/01/27 05:31:36;;;;;;;20.92;13.20;;;;;;;1.97;84.27;101410.56;5024349;28;20028;-23
2022/01/27 05:34:03;;;;;;;22.95;14.35;;;;;;;1.97;84.29;101392.34;5023233;28;20494;-23
2022/01/27 05:36:28;;;;;;;27.13;14.73;;;;;;;1.97;84.26;101391.50;5019925;28;20121;-23
2022/01/27 05:38:54;;;;;;;24.73;14.98;;;;;;;1.95;84.32;101393.13;5022665;28;20104;-23
2022/01/27 05:41:19;;;;;;;29.23;16.73;;;;;;;1.97;84.09;101412.31;5018776;28;20026;-23
2022/01/27 05:43:45;;;;;;;24.38;13.68;;;;;;;1.96;84.20;101403.59;5021791;28;20027;-23
2022/01/27 05:46:11;;;;;;;23.52;14.50;;;;;;;1.96;84.36;101410.53;5007461;28;20029;-23
2022/01/27 05:48:37;;;;;;;23.83;15.15;;;;;;;1.95;84.03;101403.53;5021929;28;20638;-23
2022/01/27 05:51:03;;;;;;;24.25;14.80;;;;;;;1.94;84.18;101417.41;5022322;28;20013;-23
2022/01/27 05:53:32;;;;;;;22.33;14.20;;;;;;;1.92;84.25;101410.41;5023963;28;20025;-23
2022/01/27 05:55:58;;;;;;;25.52;14.25;;;;;;;1.90;83.91;101412.06;5019416;28;20026;-23
2022/01/27 05:58:25;;;;;;;24.13;14.48;;;;;;;1.93;83.84;101406.09;5023664;28;20021;-23
2022/01/27 06:00:51;;;;;;;23.45;13.65;;;;;;;1.92;84.08;101397.41;5024986;28;20045;-23
2022/01/27 06:03:16;;;;;;;22.33;13.18;;;;;;;1.91;83.86;101390.41;5023905;28;20025;-23
2022/01/27 06:05:42;;;;;;;26.70;13.85;;;;;;;1.91;83.72;101400.81;5018831;28;20021;-23
2022/01/27 06:08:07;;;;;;;24.00;14.35;;;;;;;1.90;84.22;101396.44;5021560;28;20018;-23
2022/01/27 06:10:33;;;;;;;22.30;13.43;;;;;;;1.90;83.84;101401.66;5023525;28;20022;-23
2022/01/27 06:12:59;;;;;;;27.52;14.20;;;;;;;1.90;83.67;101396.44;5025745;28;20020;-23
2022/01/27 06:15:26;;;;;;;21.27;13.52;;;;;;;1.89;84.06;101379.06;5020676;28;20175;-23
2022/01/27 06:17:52;;;;;;;20.98;13.35;;;;;;;1.89;83.83;101389.50;5021047;28;20039;-23
2022/01/27 06:20:19;;;;;;;22.45;13.48;;;;;;;1.88;83.84;101382.53;5021454;28;20163;-23
2022/01/27 06:22:45;;;;;;;23.55;13.57;;;;;;;1.88;84.02;101386.81;5021688;28;20021;-23
2022/01/27 06:25:11;;;;;;;23.23;14.77;;;;;;;1.88;84.04;101389.41;5018194;28;20076;-23
2022/01/27 06:27:37;;;;;;;23.08;14.35;;;;;;;1.87;83.72;101380.72;5021648;28;21871;-23
2022/01/27 06:30:05;;;;;;;22.70;13.55;;;;;;;1.87;83.93;101380.72;5020234;28;20031;-23
2022/01/27 06:32:31;;;;;;;20.83;12.82;;;;;;;1.86;83.72;101378.97;5020245;28;20022;-23
2022/01/27 06:34:57;;;;;;;20.92;13.63;;;;;;;1.86;83.75;101373.75;5023413;28;20031;-23
2022/01/27 06:37:22;;;;;;;21.15;13.35;;;;;;;1.86;83.95;101368.56;5020108;28;20025;-23
2022/01/27 06:39:48;;;;;;;22.05;13.43;;;;;;;1.82;83.65;101365.75;5022545;28;20034;-23
2022/01/27 06:42:14;;;;;;;21.08;13.38;;;;;;;1.85;83.69;101356.38;5022982;28;20474;-23
2022/01/27 06:44:39;;;;;;;21.00;12.85;;;;;;;1.85;83.79;101345.97;5021995;28;20027;-23
2022/01/27 06:47:05;;;;;;;20.10;12.95;;;;;;;1.83;83.65;101337.22;5021407;28;20111;-23
2022/01/27 06:49:30;;;;;;;22.35;13.20;;;;;;;1.84;83.77;101335.50;5021734;28;20515;-23
2022/01/27 06:51:56;;;;;;;22.15;13.18;;;;;;;1.84;83.68;101338.09;5021446;28;20508;-23
2022/01/27 06:54:21;;;;;;;21.25;13.63;;;;;;;1.83;83.76;101347.63;5024498;28;20040;-23
2022/01/27 06:56:47;;;;;;;21.75;12.85;;;;;;;1.83;83.43;101334.59;5023411;28;20021;-23
2022/01/27 06:59:13;;;;;;;21.50;12.63;;;;;;;1.83;83.69;101339.81;5018947;28;20041;-23
2022/01/27 07:01:39;;;;;;;19.63;12.85;;;;;;;1.82;83.88;101325.03;5019763;28;20025;-23
2022/01/27 07:04:05;;;;;;;19.63;12.88;;;;;;;1.82;83.65;101331.94;5019201;28;21000;-23
2022/01/27 07:06:32;;;;;;;21.55;13.95;;;;;;;1.82;83.41;101312.03;5019919;28;20034;-23
2022/01/27 07:08:58;;;;;;;21.95;13.00;;;;;;;1.82;83.59;101313.75;5020156;28;20029;-23
2022/01/27 07:11:23;;;;;;;21.25;13.52;;;;;;;1.81;83.56;101305.06;5020965;28;20486;-23
2022/01/27 07:13:49;;;;;;;20.75;13.15;;;;;;;1.81;83.67;101292.06;5022202;28;20072;-23
2022/01/27 07:16:14;;;;;;;23.02;13.93;;;;;;;1.80;83.51;101300.66;5022201;28;20022;-23
2022/01/27 07:18:40;;;;;;;22.83;13.70;;;;;;;1.80;83.52;101285.06;5022871;28;20033;-23
2022/01/27 07:21:06;;;;;;;20.42;13.65;;;;;;;1.79;83.57;101296.31;5025623;28;20048;-23
2022/01/27 07:23:31;;;;;;;22.38;14.25;;;;;;;1.79;83.55;101292.00;5023760;28;20440;-23
2022/01/27 07:25:57;;;;;;;22.77;14.10;;;;;;;1.79;83.52;101291.09;5022305;28;20056;-23
2022/01/27 07:28:22;;;;;;;26.83;14.32;;;;;;;1.78;83.39;101286.75;5020828;28;20029;-23
2022/01/27 07:30:48;;;;;;;26.50;13.70;;;;;;;1.78;83.40;101286.75;5026757;28;20547;-23
2022/01/27 07:33:14;;;;;;;24.27;15.40;;;;;;;1.77;83.53;101288.44;5026124;28;20630;-23
2022/01/27 07:35:40;;;;;;;23.13;14.30;;;;;;;1.78;83.33;101286.75;5023937;28;20029;-23
2022/01/27 07:38:06;;;;;;;28.17;15.77;;;;;;;1.78;83.31;101291.94;5021866;28;20084;-23
2022/01/27 07:40:32;;;;;;;25.13;16.13;;;;;;;1.78;83.66;101291.94;5022329;28;20580;-23
2022/01/27 07:42:58;;;;;;;25.27;14.82;;;;;;;1.77;83.59;101292.78;5023427;28;20040;-23
2022/01/27 07:45:23;;;;;;;24.30;15.35;;;;;;;1.78;83.53;101286.75;5025911;28;20033;-23
2022/01/27 07:47:49;;;;;;;27.08;15.45;;;;;;;1.77;83.57;101285.84;5026256;28;20501;-23
2022/01/27 07:50:14;;;;;;;29.65;15.93;;;;;;;1.77;83.63;101282.38;5026778;28;20630;-23
2022/01/27 07:52:42;;;;;;;26.63;16.95;;;;;;;1.79;83.47;101283.31;5020243;28;20038;-23
2022/01/27 07:55:09;;;;;;;29.30;16.13;;;;;;;1.79;83.64;101285.91;5023438;28;20505;-23
2022/01/27 07:57:35;;;;;;;29.15;16.48;;;;;;;1.80;83.91;101277.25;5019686;28;20080;-23
2022/01/27 08:00:01;;;;;;;30.05;16.60;;;;;;;1.79;83.69;101275.50;5024512;28;20029;-23
2022/01/27 08:02:26;;;;;;;27.70;15.20;;;;;;;1.79;83.43;101291.09;5024369;28;20077;-23
2022/01/27 08:04:52;;;;;;;28.45;16.70;;;;;;;1.79;83.53;101286.81;5024415;28;20025;-23
2022/01/27 08:07:17;;;;;;;30.17;16.73;;;;;;;1.79;83.53;101289.41;5024150;28;20057;-23
2022/01/27 08:09:43;;;;;;;27.13;16.15;;;;;;;1.80;83.49;101282.47;5025108;28;20029;-23
2022/01/27 08:12:09;;;;;;;31.13;17.90;;;;;;;1.82;83.38;101278.22;5021384;28;20033;-23
2022/01/27 08:14:34;;;;;;;29.00;17.10;;;;;;;1.82;83.41;101301.63;5021598;28;20025;-23
2022/01/27 08:17:00;;;;;;;33.90;17.65;;;;;;;1.81;83.41;101284.25;5022278;28;20029;-23
2022/01/27 08:19:25;;;;;;;29.88;16.90;;;;;;;1.84;83.45;101296.50;5020839;28;20025;-23
2022/01/27 08:21:51;;;;;;;30.25;16.48;;;;;;;1.82;83.07;101273.00;5020792;28;20671;-23
2022/01/27 08:24:18;;;;;;;31.13;18.08;;;;;;;1.84;83.17;101291.28;5021222;28;20482;-23
2022/01/27 08:26:46;;;;;;;31.88;18.00;;;;;;;1.84;82.54;101292.19;5023732;28;20021;-23
2022/01/27 08:32:02;;;;;;;26.13;16.58;;;;;;;1.85;83.16;101262.72;5026307;28;20020;-23
2022/01/27 08:34:36;;;;;;;28.27;17.20;;;;;;;1.86;83.10;101280.09;5025567;28;20052;-23
2022/01/27 08:37:22;;;;;;;32.97;17.60;;;;;;;1.87;83.32;101275.78;5024452;28;20693;-23
2022/01/27 08:39:48;;;;;;;30.13;16.85;;;;;;;1.86;82.94;101269.69;5025753;28;20053;-23
2022/01/27 08:42:14;;;;;;;30.88;17.75;;;;;;;1.87;82.98;101263.66;5023805;28;20025;-23
2022/01/27 08:44:40;;;;;;;27.60;16.30;;;;;;;1.87;83.15;101255.84;5022135;28;20025;-23
2022/01/27 08:47:06;;;;;;;31.00;17.00;;;;;;;1.87;82.84;101250.66;5023442;28;20064;-23
2022/01/27 08:49:32;;;;;;;27.02;16.13;;;;;;;1.87;82.79;101240.25;5022800;28;20104;-23
2022/01/27 08:51:58;;;;;;;33.13;16.88;;;;;;;1.88;83.06;101248.94;5026670;28;20017;-23
2022/01/27 08:54:25;;;;;;;30.48;17.52;;;;;;;1.89;83.12;101243.78;5026276;28;20092;-23
2022/01/27 08:56:51;;;;;;;32.25;17.17;;;;;;;1.88;82.80;101234.22;5022946;28;20456;-23
2022/01/27 08:59:17;;;;;;;35.92;17.77;;;;;;;1.90;82.97;101232.53;5021597;28;20030;-23
2022/01/27 09:01:44;;;;;;;31.13;16.40;;;;;;;1.90;83.00;101239.50;5022451;28;20495;-23
2022/01/27 09:04:09;;;;;;;29.77;17.00;;;;;;;1.90;82.91;101232.53;5026410;28;20517;-23
2022/01/27 09:06:36;;;;;;;26.27;16.20;;;;;;;1.91;82.95;101231.72;5026364;28;20029;-23
2022/01/27 09:09:02;;;;;;;29.55;15.93;;;;;;;1.91;82.82;101239.50;5021277;28;20115;-23
2022/01/27 09:11:30;;;;;;;35.80;16.52;;;;;;;1.91;82.98;101247.31;5023995;28;20021;-23
2022/01/27 09:13:56;;;;;;;30.23;15.70;;;;;;;1.90;82.59;101235.16;5020924;28;20044;-23
2022/01/27 09:16:26;;;;;;;29.67;16.83;;;;;;;1.92;82.48;101222.19;5021982;28;20082;-23
2022/01/27 09:18:51;;;;;;;31.88;16.75;;;;;;;1.91;82.40;101215.25;5024684;28;20482;-23
2022/01/27 09:21:22;;;;;;;26.23;16.58;;;;;;;1.92;82.67;101217.91;5025650;28;20038;-23
2022/01/27 09:23:49;;;;;;;28.00;16.30;;;;;;;1.92;82.34;101225.69;5026114;28;20376;-23
2022/01/27 09:27:01;;;;;;;31.77;17.02;;;;;;;1.91;82.18;101226.50;5024313;28;20502;-23
2022/01/27 09:29:00;;;;;;;35.97;17.25;;;;;;;1.93;82.14;101234.38;5020088;28;20482;-23
2022/01/27 09:31:26;;;;;;;34.13;17.00;;;;;;;1.91;81.91;101226.50;5026849;28;20021;-23
2022/01/27 09:33:51;;;;;;;29.70;16.52;;;;;;;1.94;82.24;101237.88;5024371;28;20038;-23
2022/01/27 09:36:17;;;;;;;34.55;18.00;;;;;;;1.95;82.40;101250.03;5024444;28;20053;-23
2022/01/27 09:38:42;;;;;;;37.83;17.60;;;;;;;1.95;82.24;101243.13;5024273;28;20104;-23
2022/01/27 09:41:08;;;;;;;29.38;15.70;;;;;;;1.95;82.38;101247.44;5023366;28;20040;-23
2022/01/27 09:43:37;;;;;;;27.98;16.65;;;;;;;1.96;81.92;101237.09;5022870;28;20539;-23
2022/01/27 09:46:06;;;;;;;34.65;16.88;;;;;;;1.95;82.56;101230.13;5025606;28;20037;-23
2022/01/27 09:48:37;;;;;;;31.90;17.08;;;;;;;1.97;82.39;101235.38;5024470;28;20048;-23
2022/01/27 09:54:04;;;;;;;30.60;15.90;;;;;;;1.98;82.28;101231.94;5004475;28;20034;-23
2022/01/27 09:56:29;;;;;;;31.77;16.02;;;;;;;1.97;82.46;101219.78;5022682;28;20124;-23
2022/01/27 09:58:55;;;;;;;31.08;15.60;;;;;;;1.95;81.64;101219.72;5025336;28;20029;-23
2022/01/27 10:01:21;;;;;;;32.10;16.08;;;;;;;1.97;81.96;101217.16;5023040;28;20104;-23
2022/01/27 10:03:57;;;;;;;31.70;16.55;;;;;;;1.98;81.94;101211.13;5025430;28;20116;-23
2022/01/27 10:06:28;;;;;;;39.88;16.88;;;;;;;1.98;82.22;101216.31;5026634;28;20029;-23
2022/01/27 10:09:12;;;;;;;;;;;;;;;2.00;82.26;101193.88;5030266;28;20033;-23
2022/01/27 10:11:37;;;;;;;31.83;15.10;;;;;;;2.00;82.25;101192.13;5022762;28;19927;-23
2022/01/27 10:14:18;;;;;;;28.50;15.55;;;;;;;2.01;82.17;101185.22;5024846;28;20042;-23
2022/01/27 10:16:44;;;;;;;33.40;16.35;;;;;;;2.01;81.98;101185.22;5024238;28;20051;-23
2022/01/27 10:19:11;;;;;;;33.38;16.02;;;;;;;2.02;82.10;101184.38;5023203;28;20029;-23
2022/01/27 10:21:38;;;;;;;31.15;15.27;;;;;;;2.02;82.17;101184.38;5022725;28;20021;-23
2022/01/27 10:24:26;;;;;;;30.42;15.40;;;;;;;2.02;82.00;101181.78;5025850;28;20041;-23
2022/01/27 10:27:23;;;;;;;25.17;16.52;;;;;;;2.04;82.03;101180.13;5024185;28;20025;-23
2022/01/27 10:32:45;;;;;;;35.20;16.08;;;;;;;2.07;82.05;101156.81;5023450;28;20025;-23
2022/01/27 10:35:13;;;;;;;33.03;16.60;;;;;;;2.09;82.04;101149.03;5037451;28;20125;-23
2022/01/27 10:38:07;;;;;;;33.30;17.70;;;;;;;2.09;82.35;101155.13;5023108;28;20022;-23
2022/01/27 10:40:41;;;;;;;27.75;15.75;;;;;;;2.09;82.28;101147.31;5022277;28;20028;-23
2022/01/27 10:43:09;;;;;;;29.55;16.73;;;;;;;2.12;82.29;101143.94;5022174;28;20104;-23
2022/01/27 10:45:41;;;;;;;33.90;16.95;;;;;;;2.15;82.39;101141.44;5019786;28;20112;-23
2022/01/27 10:48:23;;;;;;;30.20;16.25;;;;;;;2.15;82.32;101142.34;5020310;28;20065;-23
2022/01/27 10:50:59;;;;;;;30.27;15.13;;;;;;;2.16;82.52;101151.00;5025145;28;20018;-23
2022/01/27 10:53:42;;;;;;;29.25;16.05;;;;;;;2.20;82.49;101141.59;5023655;28;20083;-23
2022/01/27 10:56:07;;;;;;;26.95;15.18;;;;;;;2.20;82.63;101144.19;5022787;28;20028;-23
2022/01/27 10:58:34;;;;;;;31.73;15.63;;;;;;;2.25;82.90;101142.63;5025428;28;20025;-23
2022/01/27 11:01:00;;;;;;;29.83;16.23;;;;;;;2.25;83.04;101137.41;5024086;28;20087;-23
2022/01/27 11:03:27;;;;;;;32.15;15.98;;;;;;;2.28;83.03;101137.53;5020650;28;20044;-23
2022/01/27 11:05:54;;;;;;;36.92;16.60;;;;;;;2.30;83.18;101138.44;5023463;28;20025;-23
2022/01/27 11:08:21;;;;;;;32.28;16.05;;;;;;;2.34;83.07;101132.53;5021751;28;20022;-23
2022/01/27 11:10:49;;;;;;;25.23;14.70;;;;;;;2.35;83.08;101134.28;5023042;28;20021;-23
2022/01/27 11:13:17;;;;;;;31.02;16.15;;;;;;;2.37;82.97;101116.13;5023621;28;20084;-23
2022/01/27 11:15:45;;;;;;;33.75;17.58;;;;;;;2.39;83.19;101104.91;5022133;28;20067;-23
2022/01/27 11:18:11;;;;;;;31.58;17.77;;;;;;;2.41;83.41;101108.44;5021776;28;20131;-23
2022/01/27 11:20:55;;;;;;;29.85;16.52;;;;;;;2.43;83.22;101114.59;5016758;28;20029;-23
2022/01/27 11:26:06;;;;;;;34.20;16.35;;;;;;;2.49;83.83;101106.06;5024595;28;20034;-23
2022/01/27 11:28:33;;;;;;;27.55;16.35;;;;;;;2.50;83.56;101099.16;5023030;28;20052;-23
2022/01/27 11:31:22;;;;;;;37.80;18.38;;;;;;;2.55;83.61;101089.75;5022708;28;20385;-23
2022/01/27 11:34:05;;;;;;;34.00;16.42;;;;;;;2.56;83.60;101096.72;5021538;28;20078;-23
2022/01/27 11:36:31;;;;;;;29.48;15.35;;;;;;;2.59;83.79;101098.53;5002244;28;20061;-23
2022/01/27 11:38:59;;;;;;;35.22;15.70;;;;;;;2.61;83.48;101102.09;5017524;28;20415;-23
2022/01/27 11:41:45;;;;;;;25.63;15.55;;;;;;;2.62;83.56;101102.13;5021053;28;20075;-23
2022/01/27 11:44:32;;;;;;;33.13;16.65;;;;;;;2.63;83.45;101093.47;5021129;28;20570;-23
2022/01/27 11:47:08;;;;;;;28.05;15.13;;;;;;;2.67;83.25;101091.88;5019992;28;20123;-23
2022/01/27 11:52:35;;;;;;;33.00;16.77;;;;;;;2.71;83.39;101090.22;5024022;28;20030;-23
2022/01/27 11:55:25;;;;;;;29.48;16.80;;;;;;;2.74;83.22;101090.31;5018651;28;20079;-23
2022/01/27 11:57:55;;;;;;;29.23;15.93;;;;;;;2.73;83.67;101070.31;5024663;28;20087;-23
2022/01/27 12:00:23;;;;;;;30.88;16.30;;;;;;;2.76;83.79;101083.41;5021255;28;20025;-23
2022/01/27 12:03:00;;;;;;;31.58;16.77;;;;;;;2.78;83.85;101092.19;5022612;28;20033;-23
2022/01/27 12:05:30;;;;;;;32.42;17.15;;;;;;;2.79;83.69;101063.56;5025444;28;20021;-23
2022/01/27 12:08:20;;;;;;;28.38;15.68;;;;;;;2.82;83.93;101062.78;5026135;28;20049;-23
2022/01/27 12:10:57;;;;;;;30.63;16.25;;;;;;;2.84;83.86;101063.72;5028727;28;20021;-23
2022/01/27 12:16:24;;;;;;;;;;;;;;;2.89;83.75;101059.50;5023847;28;20480;-23
2022/01/27 12:19:12;;;;;;;24.33;15.35;;;;;;;2.90;83.57;101056.06;5025241;28;19913;-23
2022/01/27 12:21:55;;;;;;;25.98;14.85;;;;;;;2.93;84.09;101065.66;5024346;28;20032;-23